Time;durP1;ratioP1;P1;durP2;ratioP2;P2;SDS_P1;SDS_P2;PMS_P1;PMS_P2;Temp;Humidity;BMP_temperature;BMP_pressure;BME280_temperature;BME280_humidity;BME280_pressure;Samples;Min_cycle;Max_cycle;Signal;HPM_P1;HPM_P2
2021/01/22 00:01:07;;;;;;;0.50;0.10;;;21.60;39.30;;;;;;5039170;28;20124;-48
2021/01/22 00:03:32;;;;;;;0.17;0.00;;;21.60;39.30;;;;;;5040915;28;20164;-48
2021/01/22 00:05:58;;;;;;;0.15;0.00;;;21.60;39.20;;;;;;5041151;28;20095;-47
2021/01/22 00:08:24;;;;;;;0.30;0.00;;;21.60;39.30;;;;;;5043182;28;20433;-49
2021/01/22 00:10:49;;;;;;;0.28;0.05;;;21.60;39.30;;;;;;5045123;28;20032;-49
2021/01/22 00:13:15;;;;;;;0.30;0.00;;;21.60;39.30;;;;;;5043911;28;20387;-51
2021/01/22 00:15:41;;;;;;;0.13;0.00;;;21.50;39.20;;;;;;5043000;28;20537;-48
2021/01/22 00:18:06;;;;;;;0.22;0.00;;;21.50;39.20;;;;;;5039853;28;20817;-48
2021/01/22 00:20:32;;;;;;;0.30;0.00;;;21.50;39.20;;;;;;5043725;28;20033;-46
2021/01/22 00:22:57;;;;;;;0.20;0.00;;;21.60;39.20;;;;;;5047525;28;20036;-48
2021/01/22 00:25:23;;;;;;;0.20;0.00;;;21.50;39.10;;;;;;5048589;28;20525;-48
2021/01/22 00:27:48;;;;;;;0.20;0.00;;;21.50;39.10;;;;;;5044262;28;20113;-48
2021/01/22 00:30:14;;;;;;;0.75;0.00;;;21.50;39.10;;;;;;5044299;28;20026;-50
2021/01/22 00:32:40;;;;;;;0.20;0.00;;;21.50;39.10;;;;;;5045440;28;21414;-48
2021/01/22 00:35:06;;;;;;;0.20;0.00;;;21.50;39.20;;;;;;5049314;28;20086;-48
2021/01/22 00:37:32;;;;;;;0.38;0.00;;;21.40;39.20;;;;;;5049634;28;20430;-48
2021/01/22 00:39:58;;;;;;;0.45;0.00;;;21.40;39.20;;;;;;5051845;28;20104;-48
2021/01/22 00:42:24;;;;;;;0.20;0.10;;;21.40;39.20;;;;;;5048704;28;20442;-49
2021/01/22 00:44:49;;;;;;;0.60;0.00;;;21.40;39.20;;;;;;5051325;28;20033;-47
2021/01/22 00:47:15;;;;;;;0.20;0.00;;;21.40;39.30;;;;;;5045423;28;20518;-48
2021/01/22 00:49:40;;;;;;;0.93;0.00;;;21.40;39.30;;;;;;5044359;28;20029;-47
2021/01/22 00:52:06;;;;;;;0.30;0.00;;;21.30;39.20;;;;;;5044122;28;20029;-49
2021/01/22 00:54:32;;;;;;;0.38;0.03;;;21.30;39.20;;;;;;5048259;28;20040;-46
2021/01/22 00:56:57;;;;;;;0.17;0.00;;;21.30;39.20;;;;;;5040431;28;20055;-48
2021/01/22 00:59:23;;;;;;;0.80;0.00;;;21.30;39.20;;;;;;5043753;28;20055;-46
2021/01/22 01:01:48;;;;;;;0.10;0.00;;;21.30;39.20;;;;;;5043434;28;20616;-47
2021/01/22 01:04:15;;;;;;;0.30;0.00;;;21.30;39.20;;;;;;5046543;28;20104;-49
2021/01/22 01:06:41;;;;;;;0.10;0.00;;;21.30;39.30;;;;;;5050075;28;20029;-46
2021/01/22 01:09:07;;;;;;;0.38;0.03;;;21.20;39.30;;;;;;5049538;28;20040;-44
2021/01/22 01:11:32;;;;;;;0.30;0.00;;;21.20;39.30;;;;;;5045825;28;20029;-47
2021/01/22 01:13:58;;;;;;;0.15;0.00;;;21.20;39.30;;;;;;5045454;28;20029;-50
2021/01/22 01:16:24;;;;;;;0.10;0.00;;;21.10;39.30;;;;;;5045565;28;20520;-48
2021/01/22 01:18:49;;;;;;;0.40;0.00;;;21.20;39.40;;;;;;5047680;28;20532;-47
2021/01/22 01:21:15;;;;;;;0.47;0.00;;;21.20;39.40;;;;;;5047985;28;20033;-47
2021/01/22 01:23:40;;;;;;;0.00;0.00;;;21.10;39.30;;;;;;5044607;28;20036;-47
2021/01/22 01:26:06;;;;;;;0.20;0.00;;;21.10;39.40;;;;;;5044351;28;20107;-48
2021/01/22 01:28:31;;;;;;;0.10;0.00;;;21.10;39.40;;;;;;5048145;28;20041;-47
2021/01/22 01:30:57;;;;;;;0.10;0.00;;;21.10;39.40;;;;;;5046662;28;20025;-44
2021/01/22 01:33:22;;;;;;;0.20;0.00;;;21.00;39.30;;;;;;5046931;28;20055;-48
2021/01/22 01:35:51;;;;;;;0.20;0.00;;;21.10;39.30;;;;;;5043726;28;20096;-47
2021/01/22 01:38:18;;;;;;;0.08;0.00;;;21.00;39.40;;;;;;5045571;28;20036;-46
2021/01/22 01:40:44;;;;;;;0.63;0.00;;;21.10;39.40;;;;;;5043906;28;20449;-47
2021/01/22 01:43:10;;;;;;;0.40;0.05;;;21.00;39.30;;;;;;5042970;28;20067;-47
2021/01/22 01:45:39;;;;;;;0.65;0.00;;;21.00;39.30;;;;;;5042761;28;20030;-45
2021/01/22 01:48:07;;;;;;;0.40;0.08;;;21.00;39.40;;;;;;5047456;28;20029;-49
2021/01/22 01:50:33;;;;;;;0.20;0.00;;;20.90;39.40;;;;;;5042872;28;20036;-48
2021/01/22 01:52:59;;;;;;;0.32;0.00;;;21.00;39.40;;;;;;5044712;28;20029;-48
2021/01/22 01:55:25;;;;;;;0.30;0.00;;;21.00;39.50;;;;;;5044692;28;20342;-49
2021/01/22 01:57:51;;;;;;;0.10;0.00;;;20.90;39.40;;;;;;5048007;28;20021;-48
2021/01/22 02:00:17;;;;;;;0.10;0.00;;;20.90;39.50;;;;;;5045013;28;20079;-45
2021/01/22 02:02:42;;;;;;;0.20;0.00;;;20.90;39.50;;;;;;5043346;28;20049;-48
2021/01/22 02:05:09;;;;;;;0.03;0.00;;;20.90;39.70;;;;;;5044901;28;20126;-48
2021/01/22 02:07:34;;;;;;;0.10;0.00;;;20.80;39.50;;;;;;5039706;28;20393;-48
2021/01/22 02:10:00;;;;;;;0.10;0.00;;;20.80;39.40;;;;;;5046160;28;20029;-48
2021/01/22 02:12:26;;;;;;;0.20;0.00;;;20.80;39.30;;;;;;5044198;28;20116;-44
2021/01/22 02:14:54;;;;;;;0.45;0.00;;;20.80;39.40;;;;;;5045436;28;20036;-49
2021/01/22 02:17:19;;;;;;;0.55;0.00;;;20.80;39.40;;;;;;5048154;28;20492;-47
2021/01/22 02:20:12;;;;;;;0.10;0.00;;;20.80;39.50;;;;;;5044011;28;20056;-49
2021/01/22 02:22:38;;;;;;;0.47;0.00;;;20.70;39.40;;;;;;5042562;28;20028;-48
2021/01/22 02:25:11;;;;;;;0.10;0.00;;;20.80;39.50;;;;;;5046103;28;20063;-48
2021/01/22 02:27:37;;;;;;;0.30;0.00;;;20.70;39.30;;;;;;5042266;28;20043;-47
2021/01/22 02:30:07;;;;;;;0.10;0.00;;;20.70;39.10;;;;;;5044135;28;20040;-47
2021/01/22 02:32:36;;;;;;;1.02;0.00;;;20.70;39.40;;;;;;5044506;28;20120;-47
2021/01/22 02:35:09;;;;;;;0.35;0.00;;;20.70;39.30;;;;;;5044182;28;20047;-49
2021/01/22 02:37:36;;;;;;;0.10;0.00;;;20.70;39.40;;;;;;5043431;28;20486;-48
2021/01/22 02:40:06;;;;;;;0.10;0.00;;;20.60;39.40;;;;;;5047039;28;20091;-49
2021/01/22 02:42:32;;;;;;;0.10;0.00;;;20.60;39.40;;;;;;5043770;28;20029;-47
2021/01/22 02:44:58;;;;;;;0.15;0.00;;;20.60;39.50;;;;;;5040953;28;20216;-49
2021/01/22 02:47:25;;;;;;;0.30;0.00;;;20.60;39.50;;;;;;5042412;28;20040;-47
2021/01/22 02:49:51;;;;;;;0.10;0.00;;;20.60;39.50;;;;;;5045786;28;20115;-50
2021/01/22 02:52:17;;;;;;;0.20;0.00;;;20.60;39.60;;;;;;5039222;28;20033;-46
2021/01/22 02:54:44;;;;;;;0.93;0.00;;;20.60;39.40;;;;;;5043262;28;20043;-49
2021/01/22 02:57:28;;;;;;;0.10;0.00;;;20.60;39.60;;;;;;5044205;28;20566;-47
2021/01/22 03:00:33;;;;;;;0.13;0.00;;;20.60;39.60;;;;;;5044328;28;20029;-47
2021/01/22 03:03:35;;;;;;;0.20;0.00;;;20.60;39.50;;;;;;5046521;28;20029;-49
2021/01/22 03:06:02;;;;;;;0.25;0.00;;;20.60;39.40;;;;;;5038585;28;20446;-49
2021/01/22 03:08:29;;;;;;;0.52;0.00;;;20.60;39.30;;;;;;5052435;22;20057;-51
2021/01/22 03:10:57;;;;;;;0.10;0.00;;;20.60;39.40;;;;;;5002442;28;20029;-50
2021/01/22 03:13:25;;;;;;;0.70;0.08;;;20.50;39.40;;;;;;5023073;28;20037;-50
2021/01/22 03:15:51;;;;;;;0.20;0.00;;;20.50;39.40;;;;;;5023359;28;20434;-50
2021/01/22 03:18:19;;;;;;;0.68;0.00;;;20.50;39.30;;;;;;5017447;28;20080;-50
2021/01/22 03:20:46;;;;;;;0.20;0.00;;;20.50;39.30;;;;;;5005538;28;20052;-50
2021/01/22 03:23:14;;;;;;;0.00;0.00;;;20.50;39.40;;;;;;5006337;28;20053;-48
2021/01/22 03:25:41;;;;;;;0.10;0.00;;;20.40;39.30;;;;;;4988424;28;20038;-50
2021/01/22 03:28:07;;;;;;;0.30;0.00;;;20.50;39.40;;;;;;5003019;28;20042;-49
2021/01/22 03:30:33;;;;;;;0.20;0.00;;;20.40;39.50;;;;;;4985877;28;20026;-49
2021/01/22 03:32:59;;;;;;;0.10;0.00;;;20.50;39.60;;;;;;5006167;28;20033;-50
2021/01/22 03:35:25;;;;;;;0.10;0.00;;;20.40;39.50;;;;;;5003766;28;20038;-51
2021/01/22 03:37:50;;;;;;;0.28;0.00;;;20.40;39.50;;;;;;5005141;28;20026;-50
2021/01/22 03:40:16;;;;;;;0.43;0.00;;;20.40;39.60;;;;;;4986332;28;20022;-50
2021/01/22 03:42:46;;;;;;;0.00;0.00;;;20.40;39.50;;;;;;4987591;28;20021;-49
2021/01/22 03:45:16;;;;;;;0.73;0.00;;;20.30;39.40;;;;;;5005200;28;20033;-49
2021/01/22 03:47:42;;;;;;;0.30;0.00;;;20.30;39.50;;;;;;4985235;28;20045;-50
2021/01/22 03:50:09;;;;;;;0.20;0.00;;;20.30;39.50;;;;;;5002643;28;20526;-51
2021/01/22 03:52:35;;;;;;;0.10;0.00;;;20.30;39.50;;;;;;4985795;28;20033;-49
2021/01/22 03:55:01;;;;;;;0.15;0.00;;;20.30;39.60;;;;;;4985364;28;20065;-50
2021/01/22 03:57:26;;;;;;;0.10;0.00;;;20.30;39.40;;;;;;5003667;28;20030;-49
2021/01/22 03:59:52;;;;;;;0.28;0.00;;;20.30;39.50;;;;;;5008908;28;20038;-48
2021/01/22 04:02:18;;;;;;;0.10;0.00;;;20.30;39.60;;;;;;5004987;28;20056;-50
2021/01/22 04:04:44;;;;;;;0.30;0.00;;;20.30;39.50;;;;;;5007843;28;20033;-50
2021/01/22 04:07:14;;;;;;;0.05;0.00;;;20.30;39.60;;;;;;5007222;28;20034;-51
2021/01/22 04:09:39;;;;;;;0.20;0.00;;;20.20;39.60;;;;;;4991910;28;20575;-49
2021/01/22 04:12:05;;;;;;;0.20;0.00;;;20.30;39.60;;;;;;5006651;28;20068;-50
2021/01/22 04:14:31;;;;;;;0.10;0.00;;;20.30;39.50;;;;;;5006980;28;20034;-51
2021/01/22 04:16:57;;;;;;;0.00;0.00;;;20.30;39.50;;;;;;5008706;28;20041;-49
2021/01/22 04:19:26;;;;;;;0.00;0.00;;;20.20;39.50;;;;;;5008727;28;20047;-49
2021/01/22 04:21:53;;;;;;;0.30;0.00;;;20.20;39.60;;;;;;5007980;28;20038;-49
2021/01/22 04:24:19;;;;;;;0.28;0.00;;;20.20;39.50;;;;;;5005431;28;20037;-50
2021/01/22 04:26:47;;;;;;;0.10;0.00;;;20.20;39.50;;;;;;5008483;28;20030;-49
2021/01/22 04:29:14;;;;;;;0.15;0.00;;;20.20;39.50;;;;;;5009936;28;20446;-50
2021/01/22 04:31:40;;;;;;;0.10;0.00;;;20.20;39.60;;;;;;5006981;28;20390;-50
2021/01/22 04:34:06;;;;;;;0.10;0.00;;;20.20;39.60;;;;;;5006586;28;20037;-49
2021/01/22 04:36:32;;;;;;;0.10;0.00;;;20.20;39.60;;;;;;5006209;28;20066;-51
2021/01/22 04:38:57;;;;;;;0.30;0.10;;;20.10;39.60;;;;;;5009644;28;20062;-51
2021/01/22 04:41:24;;;;;;;0.25;0.00;;;20.20;39.70;;;;;;5007672;28;20754;-50
2021/01/22 04:43:49;;;;;;;0.30;0.10;;;20.10;39.60;;;;;;5004715;28;20038;-50
2021/01/22 04:46:16;;;;;;;2.70;0.00;;;20.10;40.00;;;;;;5006998;28;20034;-50
2021/01/22 04:48:42;;;;;;;0.25;0.00;;;20.10;39.70;;;;;;5006566;28;20072;-48
2021/01/22 04:51:09;;;;;;;0.20;0.00;;;20.10;39.70;;;;;;5008121;28;20034;-50
2021/01/22 04:53:36;;;;;;;0.13;0.00;;;20.10;39.80;;;;;;5005950;28;20042;-50
2021/01/22 04:56:05;;;;;;;0.43;0.00;;;20.10;39.80;;;;;;5002960;28;20038;-51
2021/01/22 04:58:36;;;;;;;0.25;0.00;;;20.10;39.80;;;;;;5007676;28;20143;-51
2021/01/22 05:01:03;;;;;;;0.22;0.00;;;20.10;39.80;;;;;;4987748;28;20041;-49
2021/01/22 05:03:29;;;;;;;0.10;0.00;;;20.10;39.90;;;;;;5006367;28;20034;-50
2021/01/22 05:05:58;;;;;;;0.10;0.05;;;20.00;39.80;;;;;;5005833;28;20496;-51
2021/01/22 05:08:24;;;;;;;0.20;0.00;;;20.00;39.90;;;;;;5003948;28;20037;-50
2021/01/22 05:10:50;;;;;;;0.10;0.00;;;20.00;40.00;;;;;;4988071;28;20042;-51
2021/01/22 05:13:15;;;;;;;1.63;0.00;;;20.00;39.90;;;;;;5008239;28;20116;-50
2021/01/22 05:15:41;;;;;;;0.10;0.00;;;20.00;39.90;;;;;;4989095;28;20038;-49
2021/01/22 05:18:08;;;;;;;0.30;0.10;;;20.00;39.90;;;;;;5006154;28;20056;-49
2021/01/22 05:20:43;;;;;;;0.30;0.00;;;20.00;39.90;;;;;;5006510;28;20123;-51
2021/01/22 05:23:10;;;;;;;0.10;0.00;;;20.00;40.00;;;;;;4989690;28;20029;-50
2021/01/22 05:26:02;;;;;;;0.30;0.00;;;20.00;40.00;;;;;;5007227;28;20128;-50
2021/01/22 05:28:41;;;;;;;;;;;19.90;40.00;;;;;;5003903;28;20190;-50
2021/01/22 05:31:08;;;;;;;0.20;0.00;;;20.00;40.00;;;;;;5005458;28;19925;-49
2021/01/22 05:33:34;;;;;;;0.30;0.00;;;20.00;40.00;;;;;;5006386;28;20482;-51
2021/01/22 05:36:23;;;;;;;0.30;0.10;;;19.90;40.10;;;;;;5005739;28;20030;-46
2021/01/22 05:38:49;;;;;;;0.22;0.00;;;19.90;40.10;;;;;;5006297;28;20037;-51
2021/01/22 05:41:15;;;;;;;0.38;0.00;;;19.90;40.00;;;;;;5004143;28;20029;-49
2021/01/22 05:43:41;;;;;;;0.63;0.10;;;20.00;40.00;;;;;;5004503;28;20030;-49
2021/01/22 05:46:18;;;;;;;0.63;0.00;;;19.90;40.10;;;;;;5004146;28;20033;-51
2021/01/22 05:48:44;;;;;;;0.20;0.00;;;19.90;40.10;;;;;;5005947;28;20042;-51
2021/01/22 05:51:12;;;;;;;0.75;0.10;;;19.90;40.20;;;;;;5001503;28;20081;-51
2021/01/22 05:53:45;;;;;;;0.30;0.00;;;19.90;40.10;;;;;;5006797;28;20440;-53
2021/01/22 05:56:13;;;;;;;0.13;0.00;;;19.90;40.10;;;;;;5003335;28;20042;-52
2021/01/22 05:58:44;;;;;;;0.85;0.00;;;19.90;40.10;;;;;;5006955;28;20031;-52
2021/01/22 06:01:25;;;;;;;0.20;0.00;;;19.90;40.10;;;;;;5005123;28;20025;-52
2021/01/22 06:03:52;;;;;;;0.10;0.00;;;19.90;40.10;;;;;;5006592;28;20065;-51
2021/01/22 06:06:19;;;;;;;0.20;0.00;;;19.90;40.10;;;;;;5006396;28;20391;-52
2021/01/22 06:08:53;;;;;;;0.20;0.00;;;19.90;40.20;;;;;;5005848;28;20361;-52
2021/01/22 06:11:21;;;;;;;0.20;0.00;;;19.80;40.20;;;;;;5004788;28;20046;-48
2021/01/22 06:13:49;;;;;;;0.85;0.00;;;19.80;40.10;;;;;;5001718;28;20025;-52
2021/01/22 06:16:16;;;;;;;0.10;0.00;;;19.80;40.20;;;;;;5002457;28;20045;-54
2021/01/22 06:18:48;;;;;;;0.10;0.00;;;19.80;40.20;;;;;;5006326;28;20034;-52
2021/01/22 06:21:22;;;;;;;0.30;0.00;;;19.80;40.20;;;;;;5004431;28;20033;-51
2021/01/22 06:23:50;;;;;;;0.30;0.00;;;19.80;40.20;;;;;;5003070;28;20029;-54
2021/01/22 06:26:18;;;;;;;0.30;0.10;;;19.80;40.20;;;;;;5003694;28;20026;-51
2021/01/22 06:28:44;;;;;;;0.30;0.00;;;19.80;40.20;;;;;;4985627;28;20117;-52
2021/01/22 06:31:10;;;;;;;0.20;0.00;;;19.80;40.10;;;;;;5004366;28;20029;-52
2021/01/22 06:33:36;;;;;;;0.30;0.00;;;19.90;40.00;;;;;;5005606;28;20073;-53
2021/01/22 06:36:06;;;;;;;0.28;0.00;;;20.10;39.90;;;;;;5002241;28;20038;-51
2021/01/22 06:38:33;;;;;;;0.43;0.03;;;20.20;39.60;;;;;;5001801;28;20038;-52
2021/01/22 06:41:00;;;;;;;0.22;0.00;;;20.30;39.40;;;;;;5004919;28;20022;-52
2021/01/22 06:43:26;;;;;;;0.30;0.00;;;20.40;39.30;;;;;;5003770;28;20026;-51
2021/01/22 06:46:01;;;;;;;0.10;0.00;;;20.50;39.10;;;;;;5002953;28;20030;-51
2021/01/22 06:48:27;;;;;;;0.20;0.00;;;20.60;39.00;;;;;;5003879;28;20030;-52
2021/01/22 06:51:15;;;;;;;0.20;0.05;;;20.60;39.50;;;;;;5005336;28;20030;-52
2021/01/22 06:54:04;;;;;;;0.00;0.00;;;20.60;38.80;;;;;;5004115;28;20036;-52
2021/01/22 06:56:31;;;;;;;0.30;0.00;;;20.70;38.90;;;;;;5018248;28;20041;-53
2021/01/22 06:59:29;;;;;;;0.10;0.00;;;20.70;38.90;;;;;;5014651;28;20038;-52
2021/01/22 07:01:58;;;;;;;0.20;0.10;;;20.70;38.90;;;;;;5002432;28;20105;-51
2021/01/22 07:04:41;;;;;;;2.17;0.10;;;20.70;39.10;;;;;;5002847;28;20572;-51
2021/01/22 07:07:08;;;;;;;0.20;0.00;;;20.70;39.20;;;;;;5001834;28;20493;-51
2021/01/22 07:09:46;;;;;;;0.35;0.10;;;20.70;39.40;;;;;;4984573;28;527231;-49
2021/01/22 07:12:13;;;;;;;0.20;0.00;;;20.80;39.40;;;;;;5006443;28;20068;-50
2021/01/22 07:14:44;;;;;;;0.70;0.00;;;20.80;39.20;;;;;;5000234;28;20050;-50
2021/01/22 07:17:29;;;;;;;0.63;0.00;;;20.90;39.10;;;;;;5002219;28;20044;-51
2021/01/22 07:20:03;;;;;;;0.85;0.10;;;21.00;39.00;;;;;;5003907;28;20312;-47
2021/01/22 07:22:29;;;;;;;0.40;0.00;;;20.90;38.90;;;;;;4985457;28;20564;-51
2021/01/22 07:24:57;;;;;;;0.20;0.00;;;20.90;38.90;;;;;;5003949;28;20037;-49
2021/01/22 07:27:37;;;;;;;0.50;0.20;;;20.90;38.90;;;;;;5003982;28;20026;-52
2021/01/22 07:30:09;;;;;;;0.90;0.10;;;20.90;38.90;;;;;;5012860;28;20561;-50
2021/01/22 07:32:35;;;;;;;0.40;0.08;;;20.90;38.90;;;;;;5004414;28;20038;-51
2021/01/22 07:35:01;;;;;;;0.43;0.10;;;20.90;38.90;;;;;;5005289;28;20037;-51
2021/01/22 07:37:34;;;;;;;0.35;0.00;;;20.90;39.00;;;;;;5004610;28;20487;-50
2021/01/22 07:40:09;;;;;;;0.10;0.00;;;20.80;39.00;;;;;;5003717;28;20034;-51
2021/01/22 07:42:35;;;;;;;0.70;0.10;;;20.90;39.10;;;;;;5005643;28;20058;-49
2021/01/22 07:45:08;;;;;;;2.25;0.10;;;20.80;39.10;;;;;;5005809;28;20030;-51
2021/01/22 07:47:35;;;;;;;0.50;0.08;;;20.80;39.10;;;;;;5001995;28;20030;-49
2021/01/22 07:50:06;;;;;;;0.40;0.10;;;20.80;39.20;;;;;;5004760;28;20029;-50
2021/01/22 07:52:50;;;;;;;0.77;0.05;;;20.70;39.20;;;;;;5001587;28;20113;-52
2021/01/22 07:55:21;;;;;;;0.30;0.10;;;20.70;39.20;;;;;;5002772;28;20759;-44
2021/01/22 07:58:06;;;;;;;0.13;0.00;;;20.70;39.50;;;;;;5005130;28;20026;-44
2021/01/22 08:00:38;;;;;;;0.52;0.08;;;20.60;39.30;;;;;;5002078;28;20513;-47
2021/01/22 08:03:04;;;;;;;0.30;0.03;;;20.60;39.50;;;;;;5003026;28;20081;-45
2021/01/22 08:05:32;;;;;;;0.57;0.00;;;20.60;39.60;;;;;;5001646;28;20034;-45
2021/01/22 08:07:58;;;;;;;0.43;0.08;;;20.60;39.70;;;;;;5002422;28;20034;-45
2021/01/22 08:10:28;;;;;;;0.10;0.00;;;20.60;39.70;;;;;;4999358;28;20049;-46
2021/01/22 08:12:56;;;;;;;0.37;0.10;;;20.70;39.80;;;;;;5002268;28;20101;-45
2021/01/22 08:15:22;;;;;;;2.13;0.10;;;20.70;39.80;;;;;;5002809;28;20438;-45
2021/01/22 08:17:50;;;;;;;0.45;0.00;;;20.60;39.90;;;;;;5004388;28;20038;-43
2021/01/22 08:20:18;;;;;;;0.30;0.00;;;20.60;40.00;;;;;;5007999;28;20027;-45
2021/01/22 08:22:54;;;;;;;0.30;0.03;;;20.60;40.20;;;;;;5008303;28;20041;-46
2021/01/22 08:25:28;;;;;;;0.20;0.10;;;20.60;40.20;;;;;;4987926;28;20419;-45
2021/01/22 08:27:55;;;;;;;1.67;0.13;;;20.60;40.10;;;;;;5001419;28;20057;-48
2021/01/22 08:30:23;;;;;;;0.20;0.00;;;20.60;40.20;;;;;;5001869;28;20049;-46
2021/01/22 08:32:49;;;;;;;1.02;0.10;;;20.60;40.30;;;;;;5001509;28;20030;-42
2021/01/22 08:35:14;;;;;;;0.70;0.20;;;20.70;40.40;;;;;;5001668;28;20114;-46
2021/01/22 08:37:40;;;;;;;3.25;0.10;;;20.70;40.40;;;;;;5004043;28;20083;-44
2021/01/22 08:40:06;;;;;;;4.00;0.35;;;20.60;40.40;;;;;;4998743;28;20601;-48
2021/01/22 08:42:32;;;;;;;0.77;0.10;;;20.60;40.70;;;;;;5001712;28;20602;-46
2021/01/22 08:45:02;;;;;;;1.20;0.20;;;20.50;40.70;;;;;;5005298;28;20080;-39
2021/01/22 08:47:30;;;;;;;4.68;0.20;;;20.50;40.70;;;;;;5003221;28;20027;-43
2021/01/22 08:49:58;;;;;;;0.75;0.20;;;20.50;40.80;;;;;;5007930;28;20018;-43
2021/01/22 08:52:25;;;;;;;1.48;0.20;;;20.50;40.90;;;;;;5005951;28;20502;-45
2021/01/22 08:54:53;;;;;;;1.75;0.10;;;20.50;40.90;;;;;;5008443;28;20049;-43
2021/01/22 08:57:20;;;;;;;1.27;0.10;;;20.60;40.80;;;;;;5004150;28;20076;-43
2021/01/22 08:59:47;;;;;;;0.85;0.20;;;20.60;40.90;;;;;;5007219;28;20026;-44
2021/01/22 09:02:13;;;;;;;1.08;0.10;;;20.60;40.80;;;;;;5005171;28;20045;-43
2021/01/22 09:04:38;;;;;;;1.23;0.17;;;20.50;40.90;;;;;;5016217;28;20038;-49
2021/01/22 09:07:05;;;;;;;0.20;0.10;;;20.60;41.00;;;;;;5001249;28;20092;-46
2021/01/22 09:09:48;;;;;;;0.50;0.20;;;20.60;40.90;;;;;;5004065;28;20088;-46
2021/01/22 09:12:16;;;;;;;1.58;0.30;;;20.80;40.80;;;;;;5003967;28;20380;-44
2021/01/22 09:14:48;;;;;;;1.23;0.20;;;20.80;40.70;;;;;;5004194;28;20455;-44
2021/01/22 09:17:41;;;;;;;0.95;0.30;;;20.90;40.60;;;;;;5001133;28;20037;-45
2021/01/22 09:20:14;;;;;;;0.73;0.15;;;21.10;40.40;;;;;;5003984;28;20939;-45
2021/01/22 09:22:41;;;;;;;0.55;0.20;;;21.20;40.30;;;;;;5005685;28;20038;-45
2021/01/22 09:25:10;;;;;;;0.55;0.20;;;21.20;40.30;;;;;;5005438;28;20068;-46
2021/01/22 09:27:39;;;;;;;4.85;0.40;;;21.40;40.20;;;;;;4985184;28;20100;-47
2021/01/22 09:30:11;;;;;;;0.85;0.30;;;21.60;40.00;;;;;;5048625;22;20062;-51
2021/01/22 09:32:36;;;;;;;;;;;21.70;39.90;;;;;;5060224;28;20039;-49
2021/01/22 09:35:03;;;;;;;1.10;0.20;;;21.70;39.90;;;;;;5058924;28;20481;-47
2021/01/22 09:37:28;;;;;;;0.65;0.25;;;21.70;39.90;;;;;;5062250;28;20511;-50
2021/01/22 09:39:54;;;;;;;1.27;0.20;;;21.60;40.00;;;;;;5074118;28;20032;-48
2021/01/22 09:42:19;;;;;;;0.88;0.30;;;21.60;40.10;;;;;;5083453;28;20099;-42
2021/01/22 09:44:45;;;;;;;1.13;0.20;;;21.50;40.20;;;;;;5080650;28;20370;-47
2021/01/22 09:47:11;;;;;;;0.60;0.20;;;21.50;40.50;;;;;;5076323;28;20095;-47
2021/01/22 09:49:36;;;;;;;1.00;0.40;;;21.50;40.40;;;;;;5076128;28;20036;-45
2021/01/22 09:52:02;;;;;;;1.00;0.20;;;21.50;40.40;;;;;;5077154;28;20917;-48
2021/01/22 09:54:27;;;;;;;1.63;0.50;;;21.50;40.50;;;;;;5076615;28;20798;-47
2021/01/22 09:56:53;;;;;;;1.23;0.40;;;21.50;40.60;;;;;;5076085;28;20477;-47
2021/01/22 09:59:18;;;;;;;2.47;0.50;;;21.60;40.60;;;;;;5074000;28;20543;-46
2021/01/22 10:01:44;;;;;;;1.63;0.50;;;21.50;40.60;;;;;;5079180;28;20108;-49
2021/01/22 10:04:09;;;;;;;1.20;0.60;;;21.50;40.70;;;;;;5075808;28;20068;-47
2021/01/22 10:06:35;;;;;;;1.88;0.63;;;21.50;40.70;;;;;;5076662;28;20040;-45
2021/01/22 10:09:01;;;;;;;1.50;0.73;;;21.40;40.90;;;;;;5075556;28;20067;-49
2021/01/22 10:11:26;;;;;;;2.13;0.55;;;21.40;40.80;;;;;;5075550;28;20110;-50
2021/01/22 10:13:55;;;;;;;2.60;0.70;;;21.40;40.80;;;;;;5075140;28;20550;-48
2021/01/22 10:16:25;;;;;;;2.60;1.17;;;21.40;40.80;;;;;;5081150;28;20024;-48
2021/01/22 10:18:54;;;;;;;1.73;0.82;;;21.40;40.70;;;;;;5076478;28;20033;-47
2021/01/22 10:21:21;;;;;;;2.03;0.95;;;21.40;40.70;;;;;;5058633;28;20024;-44
2021/01/22 10:23:48;;;;;;;3.70;0.73;;;21.40;41.10;;;;;;5060363;28;20031;-46
2021/01/22 10:26:14;;;;;;;2.85;0.52;;;21.30;41.10;;;;;;5076655;28;20033;-48
2021/01/22 10:28:40;;;;;;;1.42;0.70;;;21.20;41.00;;;;;;5075936;28;20442;-48
2021/01/22 10:31:06;;;;;;;1.58;0.60;;;21.30;41.10;;;;;;5076621;28;20047;-46
2021/01/22 10:33:32;;;;;;;2.15;0.85;;;21.30;41.00;;;;;;5076058;28;20047;-49
2021/01/22 10:35:58;;;;;;;3.55;1.02;;;21.30;41.00;;;;;;5075185;28;20028;-45
2021/01/22 10:38:23;;;;;;;1.58;0.63;;;21.30;41.10;;;;;;5075300;28;20086;-45
2021/01/22 10:40:49;;;;;;;1.88;0.75;;;21.30;41.00;;;;;;5074941;28;20024;-47
2021/01/22 10:43:15;;;;;;;1.10;0.60;;;21.30;40.90;;;;;;5076806;28;20497;-47
2021/01/22 10:45:40;;;;;;;3.15;0.73;;;21.30;41.00;;;;;;5073315;28;20027;-46
2021/01/22 10:48:06;;;;;;;1.13;0.80;;;21.30;41.10;;;;;;5074774;28;20115;-50
2021/01/22 10:50:32;;;;;;;2.00;0.70;;;21.20;41.20;;;;;;5074696;28;20626;-49
2021/01/22 10:52:57;;;;;;;3.30;0.95;;;21.20;41.20;;;;;;5076260;28;20033;-46
2021/01/22 10:55:23;;;;;;;3.30;0.70;;;21.20;41.40;;;;;;5074623;28;20037;-47
2021/01/22 10:57:48;;;;;;;1.92;0.90;;;21.20;41.40;;;;;;5074210;28;20044;-43
2021/01/22 11:00:15;;;;;;;1.83;0.70;;;21.20;41.50;;;;;;5070902;28;20031;-44
2021/01/22 11:02:41;;;;;;;2.15;0.75;;;21.30;41.40;;;;;;5074623;28;20085;-49
2021/01/22 11:05:08;;;;;;;1.20;0.75;;;21.30;41.40;;;;;;5056717;28;20035;-49
2021/01/22 11:07:33;;;;;;;0.93;0.50;;;21.30;41.40;;;;;;5073227;28;20063;-47
2021/01/22 11:09:59;;;;;;;1.20;0.75;;;21.30;41.50;;;;;;5074216;28;20486;-44
2021/01/22 11:12:24;;;;;;;1.13;0.40;;;21.40;41.40;;;;;;5071732;28;20033;-51
2021/01/22 11:14:50;;;;;;;1.70;0.70;;;21.30;41.20;;;;;;5071542;28;20073;-46
2021/01/22 11:17:15;;;;;;;4.13;0.93;;;21.30;41.30;;;;;;5073310;28;20123;-47
2021/01/22 11:19:41;;;;;;;1.83;0.50;;;21.40;41.40;;;;;;5076011;28;20039;-45
2021/01/22 11:22:06;;;;;;;1.00;0.60;;;21.40;41.20;;;;;;5075552;28;20542;-47
2021/01/22 11:24:34;;;;;;;1.27;0.40;;;21.40;41.10;;;;;;5073454;28;20032;-49
2021/01/22 11:27:00;;;;;;;1.10;0.43;;;21.30;41.20;;;;;;5074949;28;20044;-48
2021/01/22 11:29:26;;;;;;;1.33;0.55;;;21.30;41.20;;;;;;5076286;28;20037;-44
2021/01/22 11:31:51;;;;;;;1.67;0.63;;;21.30;41.40;;;;;;5072946;28;20043;-44
2021/01/22 11:34:17;;;;;;;2.10;0.63;;;21.30;41.50;;;;;;5071130;28;20040;-46
2021/01/22 11:36:43;;;;;;;1.55;0.40;;;21.30;41.40;;;;;;5072515;28;20039;-45
2021/01/22 11:39:08;;;;;;;4.72;0.50;;;21.40;41.30;;;;;;5074098;28;20111;-43
2021/01/22 11:41:34;;;;;;;0.77;0.45;;;21.30;41.20;;;;;;5076526;28;20061;-46
2021/01/22 11:43:59;;;;;;;1.95;0.32;;;21.30;41.20;;;;;;5074419;28;20035;-45
2021/01/22 11:46:25;;;;;;;3.55;0.30;;;21.20;41.20;;;;;;5075662;28;20032;-43
2021/01/22 11:48:50;;;;;;;1.52;0.40;;;21.10;41.20;;;;;;5076600;28;20028;-48
2021/01/22 11:51:16;;;;;;;1.13;0.30;;;21.10;42.20;;;;;;5073777;28;20036;-46
2021/01/22 11:53:45;;;;;;;0.85;0.40;;;21.20;41.50;;;;;;5073433;28;20020;-48
2021/01/22 11:56:11;;;;;;;0.80;0.40;;;21.30;41.50;;;;;;5074908;28;20111;-45
2021/01/22 11:58:36;;;;;;;0.80;0.30;;;21.30;41.40;;;;;;5075504;28;20112;-49
2021/01/22 12:01:03;;;;;;;1.98;0.68;;;21.30;41.30;;;;;;5075678;28;20028;-45
2021/01/22 12:03:29;;;;;;;1.48;0.45;;;21.40;41.30;;;;;;5071052;28;20872;-42
2021/01/22 12:05:54;;;;;;;1.85;0.45;;;21.30;41.10;;;;;;5074079;28;20078;-46
2021/01/22 12:08:20;;;;;;;3.65;0.63;;;21.30;41.50;;;;;;5075894;28;20314;-47
2021/01/22 12:10:45;;;;;;;4.50;0.30;;;21.40;41.50;;;;;;5074633;28;20036;-47
2021/01/22 12:13:11;;;;;;;1.52;0.40;;;21.40;41.80;;;;;;5075441;28;20036;-45
2021/01/22 12:15:37;;;;;;;1.58;0.40;;;21.60;41.70;;;;;;5073747;28;20043;-45
2021/01/22 12:18:03;;;;;;;0.90;0.20;;;21.80;41.60;;;;;;5076045;28;20028;-47
2021/01/22 12:20:29;;;;;;;1.42;0.47;;;21.90;41.40;;;;;;5082760;28;20028;-47
2021/01/22 12:22:54;;;;;;;1.65;0.30;;;22.00;41.10;;;;;;5081240;28;20024;-49
2021/01/22 12:25:20;;;;;;;0.73;0.30;;;22.20;40.90;;;;;;5076790;28;20500;-46
2021/01/22 12:27:46;;;;;;;0.90;0.30;;;22.30;40.80;;;;;;5079396;28;21501;-51
2021/01/22 12:30:12;;;;;;;1.92;0.40;;;22.20;40.70;;;;;;5079505;28;20032;-48
2021/01/22 12:32:37;;;;;;;0.90;0.32;;;22.30;40.70;;;;;;5076812;28;20038;-43
2021/01/22 12:35:03;;;;;;;0.90;0.30;;;22.30;40.70;;;;;;5077548;28;20036;-44
2021/01/22 12:37:29;;;;;;;1.98;0.30;;;22.40;40.70;;;;;;5076571;28;20119;-47
2021/01/22 12:39:55;;;;;;;1.02;0.20;;;22.40;40.70;;;;;;5076481;28;20557;-46
2021/01/22 12:42:20;;;;;;;3.95;0.38;;;22.40;40.70;;;;;;5077702;28;20096;-45
2021/01/22 12:44:46;;;;;;;1.80;0.45;;;22.40;40.70;;;;;;5058393;28;20024;-48
2021/01/22 12:47:12;;;;;;;3.83;0.40;;;22.40;40.80;;;;;;5077660;28;20100;-46
2021/01/22 12:49:38;;;;;;;1.30;0.40;;;22.40;40.80;;;;;;5078358;28;20025;-47
2021/01/22 12:52:04;;;;;;;0.82;0.20;;;22.40;40.80;;;;;;5077287;28;20043;-51